sensor_id;sensor_type;location;lat;lon;timestamp;P1;durP1;ratioP1;P2;durP2;ratioP2
10939;SDS011;5522;42.696;23.494;2022-12-07T00:00:46;17.98;;;9.93;;
10939;SDS011;5522;42.696;23.494;2022-12-07T00:03:12;18.63;;;9.77;;
10939;SDS011;5522;42.696;23.494;2022-12-07T00:05:39;20.15;;;8.90;;
10939;SDS011;5522;42.696;23.494;2022-12-07T00:08:07;16.98;;;8.65;;
10939;SDS011;5522;42.696;23.494;2022-12-07T00:10:34;16.38;;;8.68;;
10939;SDS011;5522;42.696;23.494;2022-12-07T00:13:01;18.60;;;9.23;;
10939;SDS011;5522;42.696;23.494;2022-12-07T00:15:28;22.25;;;10.68;;
10939;SDS011;5522;42.696;23.494;2022-12-07T00:17:55;20.52;;;10.27;;
10939;SDS011;5522;42.696;23.494;2022-12-07T00:20:21;26.08;;;13.40;;
10939;SDS011;5522;42.696;23.494;2022-12-07T00:22:48;28.40;;;13.45;;
10939;SDS011;5522;42.696;23.494;2022-12-07T00:25:17;26.08;;;12.88;;
10939;SDS011;5522;42.696;23.494;2022-12-07T00:27:44;21.90;;;12.70;;
10939;SDS011;5522;42.696;23.494;2022-12-07T00:30:11;21.15;;;13.15;;
10939;SDS011;5522;42.696;23.494;2022-12-07T00:32:38;27.10;;;13.82;;
10939;SDS011;5522;42.696;23.494;2022-12-07T00:35:05;53.78;;;22.85;;
10939;SDS011;5522;42.696;23.494;2022-12-07T00:37:32;46.17;;;20.63;;
10939;SDS011;5522;42.696;23.494;2022-12-07T00:39:59;63.28;;;24.48;;
10939;SDS011;5522;42.696;23.494;2022-12-07T00:42:27;44.90;;;21.38;;
10939;SDS011;5522;42.696;23.494;2022-12-07T00:44:54;43.50;;;20.38;;
10939;SDS011;5522;42.696;23.494;2022-12-07T00:47:21;41.10;;;19.77;;
10939;SDS011;5522;42.696;23.494;2022-12-07T00:49:47;36.83;;;16.95;;
10939;SDS011;5522;42.696;23.494;2022-12-07T00:52:14;24.58;;;15.23;;
10939;SDS011;5522;42.696;23.494;2022-12-07T00:54:41;27.90;;;15.43;;
10939;SDS011;5522;42.696;23.494;2022-12-07T00:57:08;29.80;;;17.05;;
10939;SDS011;5522;42.696;23.494;2022-12-07T00:59:36;29.55;;;16.60;;
10939;SDS011;5522;42.696;23.494;2022-12-07T01:07:32;31.92;;;15.52;;
10939;SDS011;5522;42.696;23.494;2022-12-07T01:09:59;33.35;;;14.63;;
10939;SDS011;5522;42.696;23.494;2022-12-07T01:12:26;27.48;;;15.73;;
10939;SDS011;5522;42.696;23.494;2022-12-07T01:14:54;28.48;;;13.77;;
10939;SDS011;5522;42.696;23.494;2022-12-07T01:17:21;27.75;;;14.38;;
10939;SDS011;5522;42.696;23.494;2022-12-07T01:19:47;26.02;;;13.73;;
10939;SDS011;5522;42.696;23.494;2022-12-07T01:22:14;25.25;;;12.77;;
10939;SDS011;5522;42.696;23.494;2022-12-07T01:24:41;23.63;;;13.82;;
10939;SDS011;5522;42.696;23.494;2022-12-07T01:27:08;22.73;;;11.88;;
10939;SDS011;5522;42.696;23.494;2022-12-07T01:29:35;26.75;;;12.85;;
10939;SDS011;5522;42.696;23.494;2022-12-07T01:32:03;25.92;;;12.45;;
10939;SDS011;5522;42.696;23.494;2022-12-07T01:34:30;24.23;;;13.63;;
10939;SDS011;5522;42.696;23.494;2022-12-07T01:36:57;22.73;;;13.13;;
10939;SDS011;5522;42.696;23.494;2022-12-07T01:39:24;26.23;;;13.55;;
10939;SDS011;5522;42.696;23.494;2022-12-07T01:41:52;24.95;;;12.60;;
10939;SDS011;5522;42.696;23.494;2022-12-07T01:44:20;24.33;;;12.95;;
10939;SDS011;5522;42.696;23.494;2022-12-07T01:46:49;27.33;;;13.65;;
10939;SDS011;5522;42.696;23.494;2022-12-07T01:49:20;21.02;;;11.50;;
10939;SDS011;5522;42.696;23.494;2022-12-07T01:51:51;21.13;;;11.07;;
10939;SDS011;5522;42.696;23.494;2022-12-07T01:54:22;23.88;;;11.52;;
10939;SDS011;5522;42.696;23.494;2022-12-07T01:56:49;18.17;;;10.95;;
10939;SDS011;5522;42.696;23.494;2022-12-07T01:59:19;15.75;;;9.10;;
10939;SDS011;5522;42.696;23.494;2022-12-07T02:01:50;20.13;;;10.25;;
10939;SDS011;5522;42.696;23.494;2022-12-07T02:04:19;20.10;;;10.40;;
10939;SDS011;5522;42.696;23.494;2022-12-07T02:06:48;16.80;;;9.60;;
10939;SDS011;5522;42.696;23.494;2022-12-07T02:09:15;19.98;;;9.90;;
10939;SDS011;5522;42.696;23.494;2022-12-07T02:11:42;20.60;;;9.63;;
10939;SDS011;5522;42.696;23.494;2022-12-07T02:14:08;21.10;;;10.23;;
10939;SDS011;5522;42.696;23.494;2022-12-07T02:16:38;21.38;;;10.32;;
10939;SDS011;5522;42.696;23.494;2022-12-07T02:19:24;18.90;;;10.13;;
10939;SDS011;5522;42.696;23.494;2022-12-07T02:22:15;22.52;;;11.02;;
10939;SDS011;5522;42.696;23.494;2022-12-07T02:24:55;17.98;;;10.10;;
10939;SDS011;5522;42.696;23.494;2022-12-07T02:27:38;22.90;;;11.50;;
10939;SDS011;5522;42.696;23.494;2022-12-07T02:30:13;19.95;;;10.63;;
10939;SDS011;5522;42.696;23.494;2022-12-07T02:32:44;19.67;;;10.70;;
10939;SDS011;5522;42.696;23.494;2022-12-07T02:35:22;23.58;;;11.55;;
10939;SDS011;5522;42.696;23.494;2022-12-07T02:37:58;19.33;;;11.23;;
10939;SDS011;5522;42.696;23.494;2022-12-07T02:40:31;21.88;;;12.52;;
10939;SDS011;5522;42.696;23.494;2022-12-07T02:43:08;21.77;;;13.02;;
10939;SDS011;5522;42.696;23.494;2022-12-07T02:45:40;21.98;;;10.60;;
10939;SDS011;5522;42.696;23.494;2022-12-07T02:48:08;26.02;;;13.68;;
10939;SDS011;5522;42.696;23.494;2022-12-07T02:50:38;31.38;;;16.92;;
10939;SDS011;5522;42.696;23.494;2022-12-07T02:53:05;25.75;;;13.82;;
10939;SDS011;5522;42.696;23.494;2022-12-07T02:55:33;26.30;;;13.80;;
10939;SDS011;5522;42.696;23.494;2022-12-07T03:00:58;30.45;;;14.27;;
10939;SDS011;5522;42.696;23.494;2022-12-07T03:03:31;24.13;;;13.30;;
10939;SDS011;5522;42.696;23.494;2022-12-07T03:06:04;32.95;;;15.82;;
10939;SDS011;5522;42.696;23.494;2022-12-07T03:08:43;47.20;;;18.52;;
10939;SDS011;5522;42.696;23.494;2022-12-07T03:11:15;33.15;;;16.33;;
10939;SDS011;5522;42.696;23.494;2022-12-07T03:13:48;31.40;;;15.35;;
10939;SDS011;5522;42.696;23.494;2022-12-07T03:16:22;26.40;;;12.98;;
10939;SDS011;5522;42.696;23.494;2022-12-07T03:18:53;24.20;;;12.50;;
10939;SDS011;5522;42.696;23.494;2022-12-07T03:21:24;27.45;;;12.50;;
10939;SDS011;5522;42.696;23.494;2022-12-07T03:23:53;24.85;;;11.88;;
10939;SDS011;5522;42.696;23.494;2022-12-07T03:26:24;26.95;;;12.50;;
10939;SDS011;5522;42.696;23.494;2022-12-07T03:28:58;25.55;;;12.23;;
10939;SDS011;5522;42.696;23.494;2022-12-07T03:31:32;30.30;;;12.35;;
10939;SDS011;5522;42.696;23.494;2022-12-07T03:34:05;25.23;;;12.45;;
10939;SDS011;5522;42.696;23.494;2022-12-07T03:36:37;25.88;;;12.65;;
10939;SDS011;5522;42.696;23.494;2022-12-07T03:39:12;24.95;;;12.40;;
10939;SDS011;5522;42.696;23.494;2022-12-07T03:41:45;41.13;;;16.75;;
10939;SDS011;5522;42.696;23.494;2022-12-07T03:44:13;31.63;;;14.02;;
10939;SDS011;5522;42.696;23.494;2022-12-07T03:46:43;28.55;;;13.57;;
10939;SDS011;5522;42.696;23.494;2022-12-07T03:49:16;26.45;;;13.43;;
10939;SDS011;5522;42.696;23.494;2022-12-07T03:51:49;29.27;;;13.85;;
10939;SDS011;5522;42.696;23.494;2022-12-07T03:54:22;31.15;;;14.25;;
10939;SDS011;5522;42.696;23.494;2022-12-07T03:56:52;31.83;;;15.30;;
10939;SDS011;5522;42.696;23.494;2022-12-07T03:59:21;25.45;;;13.50;;
10939;SDS011;5522;42.696;23.494;2022-12-07T04:01:53;39.95;;;14.93;;
10939;SDS011;5522;42.696;23.494;2022-12-07T04:04:21;37.08;;;16.23;;
10939;SDS011;5522;42.696;23.494;2022-12-07T04:06:48;37.67;;;19.42;;
10939;SDS011;5522;42.696;23.494;2022-12-07T04:09:15;44.95;;;21.63;;
10939;SDS011;5522;42.696;23.494;2022-12-07T04:11:42;39.42;;;20.83;;
10939;SDS011;5522;42.696;23.494;2022-12-07T04:14:10;38.05;;;19.75;;
10939;SDS011;5522;42.696;23.494;2022-12-07T04:16:46;49.00;;;22.33;;
10939;SDS011;5522;42.696;23.494;2022-12-07T04:19:14;43.50;;;20.13;;
10939;SDS011;5522;42.696;23.494;2022-12-07T04:21:42;41.72;;;19.23;;
10939;SDS011;5522;42.696;23.494;2022-12-07T04:24:09;38.15;;;16.38;;
10939;SDS011;5522;42.696;23.494;2022-12-07T04:26:37;30.73;;;15.02;;
10939;SDS011;5522;42.696;23.494;2022-12-07T04:29:04;33.30;;;14.82;;
10939;SDS011;5522;42.696;23.494;2022-12-07T04:31:31;36.42;;;15.85;;
10939;SDS011;5522;42.696;23.494;2022-12-07T04:33:58;31.90;;;16.10;;
10939;SDS011;5522;42.696;23.494;2022-12-07T04:36:26;31.88;;;14.55;;
10939;SDS011;5522;42.696;23.494;2022-12-07T04:38:53;33.88;;;13.57;;
10939;SDS011;5522;42.696;23.494;2022-12-07T04:41:21;29.02;;;13.43;;
10939;SDS011;5522;42.696;23.494;2022-12-07T04:43:52;33.08;;;16.50;;
10939;SDS011;5522;42.696;23.494;2022-12-07T04:46:20;32.70;;;15.25;;
10939;SDS011;5522;42.696;23.494;2022-12-07T04:48:47;35.03;;;14.60;;
10939;SDS011;5522;42.696;23.494;2022-12-07T04:51:14;33.58;;;14.50;;
10939;SDS011;5522;42.696;23.494;2022-12-07T04:53:46;28.00;;;14.38;;
10939;SDS011;5522;42.696;23.494;2022-12-07T04:56:13;28.65;;;14.75;;
10939;SDS011;5522;42.696;23.494;2022-12-07T04:58:40;32.53;;;17.60;;
10939;SDS011;5522;42.696;23.494;2022-12-07T05:01:07;34.38;;;16.63;;
10939;SDS011;5522;42.696;23.494;2022-12-07T05:03:35;28.50;;;15.32;;
10939;SDS011;5522;42.696;23.494;2022-12-07T05:06:02;25.63;;;15.02;;
10939;SDS011;5522;42.696;23.494;2022-12-07T05:08:30;29.58;;;15.07;;
10939;SDS011;5522;42.696;23.494;2022-12-07T05:10:58;27.33;;;15.55;;
10939;SDS011;5522;42.696;23.494;2022-12-07T05:13:25;29.25;;;17.00;;
10939;SDS011;5522;42.696;23.494;2022-12-07T05:15:52;34.05;;;15.77;;
10939;SDS011;5522;42.696;23.494;2022-12-07T05:18:19;32.17;;;17.13;;
10939;SDS011;5522;42.696;23.494;2022-12-07T05:20:45;35.97;;;17.40;;
10939;SDS011;5522;42.696;23.494;2022-12-07T05:23:12;31.30;;;18.60;;
10939;SDS011;5522;42.696;23.494;2022-12-07T05:25:39;32.30;;;16.17;;
10939;SDS011;5522;42.696;23.494;2022-12-07T05:28:07;28.15;;;16.33;;
10939;SDS011;5522;42.696;23.494;2022-12-07T05:30:34;32.72;;;17.95;;
10939;SDS011;5522;42.696;23.494;2022-12-07T05:33:01;34.88;;;18.88;;
10939;SDS011;5522;42.696;23.494;2022-12-07T05:35:28;38.67;;;19.13;;
10939;SDS011;5522;42.696;23.494;2022-12-07T05:37:55;35.25;;;18.25;;
10939;SDS011;5522;42.696;23.494;2022-12-07T05:40:23;35.53;;;19.80;;
10939;SDS011;5522;42.696;23.494;2022-12-07T05:42:50;117.78;;;43.78;;
10939;SDS011;5522;42.696;23.494;2022-12-07T05:45:18;148.20;;;56.03;;
10939;SDS011;5522;42.696;23.494;2022-12-07T05:47:45;84.47;;;38.65;;
10939;SDS011;5522;42.696;23.494;2022-12-07T05:50:12;71.80;;;34.47;;
10939;SDS011;5522;42.696;23.494;2022-12-07T05:52:38;297.00;;;125.55;;
10939;SDS011;5522;42.696;23.494;2022-12-07T05:55:06;157.10;;;73.88;;
10939;SDS011;5522;42.696;23.494;2022-12-07T05:57:33;70.82;;;41.42;;
10939;SDS011;5522;42.696;23.494;2022-12-07T06:00:00;71.10;;;41.88;;
10939;SDS011;5522;42.696;23.494;2022-12-07T06:02:27;78.07;;;45.10;;
10939;SDS011;5522;42.696;23.494;2022-12-07T06:04:54;98.30;;;55.85;;
10939;SDS011;5522;42.696;23.494;2022-12-07T06:07:21;108.13;;;60.45;;
10939;SDS011;5522;42.696;23.494;2022-12-07T06:09:47;114.82;;;61.55;;
10939;SDS011;5522;42.696;23.494;2022-12-07T06:12:14;59.95;;;31.75;;
10939;SDS011;5522;42.696;23.494;2022-12-07T06:14:55;53.47;;;29.05;;
10939;SDS011;5522;42.696;23.494;2022-12-07T06:17:22;51.38;;;25.45;;
10939;SDS011;5522;42.696;23.494;2022-12-07T06:19:50;55.40;;;29.52;;
10939;SDS011;5522;42.696;23.494;2022-12-07T06:22:17;55.53;;;32.05;;
10939;SDS011;5522;42.696;23.494;2022-12-07T06:24:44;51.25;;;29.00;;
10939;SDS011;5522;42.696;23.494;2022-12-07T06:27:11;42.20;;;23.50;;
10939;SDS011;5522;42.696;23.494;2022-12-07T06:29:38;36.90;;;18.73;;
10939;SDS011;5522;42.696;23.494;2022-12-07T06:32:05;42.08;;;18.17;;
10939;SDS011;5522;42.696;23.494;2022-12-07T06:34:32;32.60;;;18.10;;
10939;SDS011;5522;42.696;23.494;2022-12-07T06:37:00;30.83;;;17.60;;
10939;SDS011;5522;42.696;23.494;2022-12-07T06:39:27;35.58;;;18.00;;
10939;SDS011;5522;42.696;23.494;2022-12-07T06:41:55;28.73;;;16.80;;
10939;SDS011;5522;42.696;23.494;2022-12-07T06:44:22;27.08;;;16.48;;
10939;SDS011;5522;42.696;23.494;2022-12-07T06:46:50;30.90;;;17.48;;
10939;SDS011;5522;42.696;23.494;2022-12-07T06:49:18;30.63;;;16.88;;
10939;SDS011;5522;42.696;23.494;2022-12-07T06:51:44;32.50;;;15.38;;
10939;SDS011;5522;42.696;23.494;2022-12-07T06:54:13;27.15;;;14.57;;
10939;SDS011;5522;42.696;23.494;2022-12-07T06:56:41;26.02;;;13.45;;
10939;SDS011;5522;42.696;23.494;2022-12-07T06:59:07;24.23;;;13.80;;
10939;SDS011;5522;42.696;23.494;2022-12-07T07:01:35;22.83;;;13.23;;
10939;SDS011;5522;42.696;23.494;2022-12-07T07:04:02;26.45;;;13.50;;
10939;SDS011;5522;42.696;23.494;2022-12-07T07:06:29;28.00;;;14.68;;
10939;SDS011;5522;42.696;23.494;2022-12-07T07:08:56;35.50;;;17.08;;
10939;SDS011;5522;42.696;23.494;2022-12-07T07:11:24;33.13;;;17.17;;
10939;SDS011;5522;42.696;23.494;2022-12-07T07:13:51;37.90;;;19.35;;
10939;SDS011;5522;42.696;23.494;2022-12-07T07:16:19;27.30;;;15.40;;
10939;SDS011;5522;42.696;23.494;2022-12-07T07:18:45;24.60;;;13.73;;
10939;SDS011;5522;42.696;23.494;2022-12-07T07:21:12;24.00;;;14.43;;
10939;SDS011;5522;42.696;23.494;2022-12-07T07:23:39;23.40;;;14.13;;
10939;SDS011;5522;42.696;23.494;2022-12-07T07:26:06;23.85;;;14.25;;
10939;SDS011;5522;42.696;23.494;2022-12-07T07:28:34;56.45;;;25.02;;
10939;SDS011;5522;42.696;23.494;2022-12-07T07:31:01;33.80;;;17.38;;
10939;SDS011;5522;42.696;23.494;2022-12-07T07:33:28;37.60;;;20.10;;
10939;SDS011;5522;42.696;23.494;2022-12-07T07:35:55;33.72;;;18.40;;
10939;SDS011;5522;42.696;23.494;2022-12-07T07:38:22;31.55;;;16.73;;
10939;SDS011;5522;42.696;23.494;2022-12-07T07:40:48;26.83;;;16.70;;
10939;SDS011;5522;42.696;23.494;2022-12-07T07:43:15;30.65;;;15.88;;
10939;SDS011;5522;42.696;23.494;2022-12-07T07:45:44;26.58;;;15.35;;
10939;SDS011;5522;42.696;23.494;2022-12-07T07:48:11;25.63;;;15.57;;
10939;SDS011;5522;42.696;23.494;2022-12-07T07:50:38;29.77;;;18.00;;
10939;SDS011;5522;42.696;23.494;2022-12-07T07:53:04;66.55;;;33.75;;
10939;SDS011;5522;42.696;23.494;2022-12-07T07:55:31;40.50;;;20.13;;
10939;SDS011;5522;42.696;23.494;2022-12-07T07:57:58;24.77;;;15.13;;
10939;SDS011;5522;42.696;23.494;2022-12-07T08:00:25;27.73;;;14.82;;
10939;SDS011;5522;42.696;23.494;2022-12-07T08:02:53;22.65;;;13.95;;
10939;SDS011;5522;42.696;23.494;2022-12-07T08:05:20;22.13;;;13.43;;
10939;SDS011;5522;42.696;23.494;2022-12-07T08:07:47;17.38;;;11.02;;
10939;SDS011;5522;42.696;23.494;2022-12-07T08:10:14;13.30;;;9.95;;
10939;SDS011;5522;42.696;23.494;2022-12-07T08:12:41;19.35;;;10.93;;
10939;SDS011;5522;42.696;23.494;2022-12-07T08:15:23;20.17;;;11.32;;
10939;SDS011;5522;42.696;23.494;2022-12-07T08:17:50;14.02;;;9.50;;
10939;SDS011;5522;42.696;23.494;2022-12-07T08:20:18;12.95;;;9.55;;
10939;SDS011;5522;42.696;23.494;2022-12-07T08:22:45;22.98;;;12.63;;
10939;SDS011;5522;42.696;23.494;2022-12-07T08:25:12;10.65;;;9.02;;
10939;SDS011;5522;42.696;23.494;2022-12-07T08:27:39;14.18;;;8.85;;
10939;SDS011;5522;42.696;23.494;2022-12-07T08:30:06;15.27;;;9.60;;
10939;SDS011;5522;42.696;23.494;2022-12-07T08:32:34;17.95;;;10.68;;
10939;SDS011;5522;42.696;23.494;2022-12-07T08:35:00;19.73;;;11.20;;
10939;SDS011;5522;42.696;23.494;2022-12-07T08:37:29;20.83;;;12.02;;
10939;SDS011;5522;42.696;23.494;2022-12-07T08:39:55;15.57;;;9.68;;
10939;SDS011;5522;42.696;23.494;2022-12-07T08:42:22;17.02;;;11.52;;
10939;SDS011;5522;42.696;23.494;2022-12-07T08:44:52;16.20;;;10.50;;
10939;SDS011;5522;42.696;23.494;2022-12-07T08:47:19;16.88;;;10.70;;
10939;SDS011;5522;42.696;23.494;2022-12-07T08:49:47;14.95;;;10.65;;
10939;SDS011;5522;42.696;23.494;2022-12-07T08:52:17;15.68;;;9.80;;
10939;SDS011;5522;42.696;23.494;2022-12-07T08:54:45;14.82;;;9.90;;
10939;SDS011;5522;42.696;23.494;2022-12-07T08:57:13;16.10;;;9.80;;
10939;SDS011;5522;42.696;23.494;2022-12-07T08:59:40;17.02;;;10.10;;
10939;SDS011;5522;42.696;23.494;2022-12-07T09:02:07;12.65;;;8.90;;
10939;SDS011;5522;42.696;23.494;2022-12-07T09:04:33;16.15;;;10.40;;
10939;SDS011;5522;42.696;23.494;2022-12-07T09:07:00;48.10;;;31.88;;
10939;SDS011;5522;42.696;23.494;2022-12-07T09:09:27;14.48;;;9.80;;
10939;SDS011;5522;42.696;23.494;2022-12-07T09:11:55;13.95;;;10.10;;
10939;SDS011;5522;42.696;23.494;2022-12-07T09:14:22;13.65;;;8.52;;
10939;SDS011;5522;42.696;23.494;2022-12-07T09:16:50;13.60;;;9.05;;
10939;SDS011;5522;42.696;23.494;2022-12-07T09:19:16;13.35;;;8.88;;
10939;SDS011;5522;42.696;23.494;2022-12-07T09:21:43;20.20;;;10.18;;
10939;SDS011;5522;42.696;23.494;2022-12-07T09:24:11;18.40;;;9.02;;
10939;SDS011;5522;42.696;23.494;2022-12-07T09:26:38;12.48;;;9.25;;
10939;SDS011;5522;42.696;23.494;2022-12-07T09:29:06;15.20;;;9.23;;
10939;SDS011;5522;42.696;23.494;2022-12-07T09:31:35;13.07;;;8.80;;
10939;SDS011;5522;42.696;23.494;2022-12-07T09:34:02;17.55;;;8.95;;
10939;SDS011;5522;42.696;23.494;2022-12-07T09:36:31;17.10;;;9.43;;
10939;SDS011;5522;42.696;23.494;2022-12-07T09:38:58;15.45;;;9.63;;
10939;SDS011;5522;42.696;23.494;2022-12-07T09:41:25;16.15;;;9.73;;
10939;SDS011;5522;42.696;23.494;2022-12-07T09:43:56;11.30;;;7.63;;
10939;SDS011;5522;42.696;23.494;2022-12-07T09:46:30;10.90;;;8.70;;
10939;SDS011;5522;42.696;23.494;2022-12-07T09:49:02;11.77;;;8.30;;
10939;SDS011;5522;42.696;23.494;2022-12-07T09:51:29;13.38;;;8.00;;
10939;SDS011;5522;42.696;23.494;2022-12-07T09:53:56;12.38;;;8.50;;
10939;SDS011;5522;42.696;23.494;2022-12-07T09:56:24;15.13;;;9.82;;
10939;SDS011;5522;42.696;23.494;2022-12-07T09:58:51;15.88;;;9.20;;
10939;SDS011;5522;42.696;23.494;2022-12-07T10:01:27;18.65;;;9.63;;
10939;SDS011;5522;42.696;23.494;2022-12-07T10:03:59;15.60;;;8.55;;
10939;SDS011;5522;42.696;23.494;2022-12-07T10:06:33;15.10;;;9.00;;
10939;SDS011;5522;42.696;23.494;2022-12-07T10:08:59;15.13;;;9.32;;
10939;SDS011;5522;42.696;23.494;2022-12-07T10:11:27;18.25;;;10.10;;
10939;SDS011;5522;42.696;23.494;2022-12-07T10:13:54;20.65;;;11.40;;
10939;SDS011;5522;42.696;23.494;2022-12-07T10:16:31;13.55;;;10.25;;
10939;SDS011;5522;42.696;23.494;2022-12-07T10:19:23;11.93;;;8.20;;
10939;SDS011;5522;42.696;23.494;2022-12-07T10:22:07;12.25;;;7.13;;
10939;SDS011;5522;42.696;23.494;2022-12-07T10:24:36;16.52;;;7.57;;
10939;SDS011;5522;42.696;23.494;2022-12-07T10:27:11;9.93;;;7.30;;
10939;SDS011;5522;42.696;23.494;2022-12-07T10:29:49;13.40;;;7.60;;
10939;SDS011;5522;42.696;23.494;2022-12-07T10:32:32;11.18;;;7.43;;
10939;SDS011;5522;42.696;23.494;2022-12-07T10:35:18;8.75;;;6.22;;
10939;SDS011;5522;42.696;23.494;2022-12-07T10:37:48;8.30;;;5.53;;
10939;SDS011;5522;42.696;23.494;2022-12-07T10:40:24;10.00;;;6.18;;
10939;SDS011;5522;42.696;23.494;2022-12-07T10:43:03;8.82;;;5.93;;
10939;SDS011;5522;42.696;23.494;2022-12-07T10:45:32;11.63;;;6.57;;
10939;SDS011;5522;42.696;23.494;2022-12-07T10:48:02;11.32;;;6.55;;
10939;SDS011;5522;42.696;23.494;2022-12-07T10:53:35;7.40;;;5.75;;
10939;SDS011;5522;42.696;23.494;2022-12-07T10:56:25;11.70;;;6.57;;
10939;SDS011;5522;42.696;23.494;2022-12-07T10:59:13;11.18;;;6.32;;
10939;SDS011;5522;42.696;23.494;2022-12-07T11:01:57;12.23;;;7.05;;
10939;SDS011;5522;42.696;23.494;2022-12-07T11:04:38;7.70;;;5.93;;
10939;SDS011;5522;42.696;23.494;2022-12-07T11:07:16;13.02;;;6.28;;
10939;SDS011;5522;42.696;23.494;2022-12-07T11:10:01;10.52;;;5.60;;
10939;SDS011;5522;42.696;23.494;2022-12-07T11:12:41;6.15;;;4.45;;
10939;SDS011;5522;42.696;23.494;2022-12-07T11:15:21;9.73;;;5.82;;
10939;SDS011;5522;42.696;23.494;2022-12-07T11:17:54;7.60;;;4.72;;
10939;SDS011;5522;42.696;23.494;2022-12-07T11:20:33;5.72;;;4.20;;
10939;SDS011;5522;42.696;23.494;2022-12-07T11:23:09;6.15;;;3.47;;
10939;SDS011;5522;42.696;23.494;2022-12-07T11:25:43;8.95;;;5.20;;
10939;SDS011;5522;42.696;23.494;2022-12-07T11:28:22;10.55;;;5.50;;
10939;SDS011;5522;42.696;23.494;2022-12-07T11:30:59;6.57;;;4.15;;
10939;SDS011;5522;42.696;23.494;2022-12-07T11:33:39;7.03;;;4.75;;
10939;SDS011;5522;42.696;23.494;2022-12-07T11:36:20;12.88;;;7.38;;
10939;SDS011;5522;42.696;23.494;2022-12-07T11:39:01;8.60;;;5.75;;
10939;SDS011;5522;42.696;23.494;2022-12-07T11:41:31;35.55;;;15.02;;
10939;SDS011;5522;42.696;23.494;2022-12-07T11:44:04;8.43;;;5.68;;
10939;SDS011;5522;42.696;23.494;2022-12-07T11:46:40;5.63;;;4.70;;
10939;SDS011;5522;42.696;23.494;2022-12-07T11:49:15;8.18;;;4.78;;
10939;SDS011;5522;42.696;23.494;2022-12-07T11:51:52;8.55;;;4.63;;
10939;SDS011;5522;42.696;23.494;2022-12-07T11:54:25;11.13;;;5.03;;
10939;SDS011;5522;42.696;23.494;2022-12-07T11:56:56;7.55;;;4.90;;
10939;SDS011;5522;42.696;23.494;2022-12-07T11:59:31;8.55;;;7.43;;
10939;SDS011;5522;42.696;23.494;2022-12-07T12:02:11;10.68;;;5.75;;
10939;SDS011;5522;42.696;23.494;2022-12-07T12:04:45;7.32;;;5.07;;
10939;SDS011;5522;42.696;23.494;2022-12-07T12:07:19;7.20;;;6.05;;
10939;SDS011;5522;42.696;23.494;2022-12-07T12:09:49;9.20;;;6.30;;
10939;SDS011;5522;42.696;23.494;2022-12-07T12:12:24;15.10;;;10.40;;
10939;SDS011;5522;42.696;23.494;2022-12-07T12:15:16;10.07;;;5.35;;
10939;SDS011;5522;42.696;23.494;2022-12-07T12:17:57;13.02;;;8.95;;
10939;SDS011;5522;42.696;23.494;2022-12-07T12:20:36;7.68;;;4.90;;
10939;SDS011;5522;42.696;23.494;2022-12-07T12:23:11;7.25;;;5.55;;
10939;SDS011;5522;42.696;23.494;2022-12-07T12:25:41;9.23;;;6.45;;
10939;SDS011;5522;42.696;23.494;2022-12-07T12:28:24;9.95;;;5.55;;
10939;SDS011;5522;42.696;23.494;2022-12-07T12:31:06;9.80;;;4.95;;
10939;SDS011;5522;42.696;23.494;2022-12-07T12:33:38;29.98;;;16.10;;
10939;SDS011;5522;42.696;23.494;2022-12-07T12:36:19;23.23;;;13.70;;
10939;SDS011;5522;42.696;23.494;2022-12-07T12:38:51;15.70;;;11.40;;
10939;SDS011;5522;42.696;23.494;2022-12-07T12:41:52;19.08;;;12.45;;
10939;SDS011;5522;42.696;23.494;2022-12-07T12:50:25;27.17;;;11.93;;
10939;SDS011;5522;42.696;23.494;2022-12-07T12:52:58;26.83;;;15.48;;
10939;SDS011;5522;42.696;23.494;2022-12-07T12:55:46;37.20;;;22.95;;
10939;SDS011;5522;42.696;23.494;2022-12-07T12:58:35;28.10;;;20.92;;
10939;SDS011;5522;42.696;23.494;2022-12-07T13:04:03;17.55;;;10.65;;
10939;SDS011;5522;42.696;23.494;2022-12-07T13:06:43;20.67;;;11.35;;
10939;SDS011;5522;42.696;23.494;2022-12-07T13:09:17;22.27;;;10.93;;
10939;SDS011;5522;42.696;23.494;2022-12-07T13:11:49;18.60;;;9.93;;
10939;SDS011;5522;42.696;23.494;2022-12-07T13:17:09;13.20;;;9.23;;
10939;SDS011;5522;42.696;23.494;2022-12-07T13:22:45;15.13;;;9.55;;
10939;SDS011;5522;42.696;23.494;2022-12-07T13:25:18;20.65;;;9.70;;
10939;SDS011;5522;42.696;23.494;2022-12-07T13:27:54;17.23;;;11.10;;
10939;SDS011;5522;42.696;23.494;2022-12-07T13:30:24;19.83;;;10.80;;
10939;SDS011;5522;42.696;23.494;2022-12-07T13:32:52;25.38;;;12.68;;
10939;SDS011;5522;42.696;23.494;2022-12-07T13:35:31;20.15;;;12.82;;
10939;SDS011;5522;42.696;23.494;2022-12-07T13:37:59;25.25;;;12.95;;
10939;SDS011;5522;42.696;23.494;2022-12-07T13:40:30;30.63;;;13.50;;
10939;SDS011;5522;42.696;23.494;2022-12-07T13:42:58;25.15;;;13.82;;
10939;SDS011;5522;42.696;23.494;2022-12-07T13:45:27;20.70;;;13.25;;
10939;SDS011;5522;42.696;23.494;2022-12-07T13:48:10;18.80;;;10.95;;
10939;SDS011;5522;42.696;23.494;2022-12-07T13:50:42;20.67;;;11.70;;
10939;SDS011;5522;42.696;23.494;2022-12-07T13:53:11;22.15;;;14.75;;
10939;SDS011;5522;42.696;23.494;2022-12-07T13:55:44;58.13;;;36.67;;
10939;SDS011;5522;42.696;23.494;2022-12-07T13:58:14;19.17;;;10.23;;
10939;SDS011;5522;42.696;23.494;2022-12-07T14:00:41;19.55;;;9.35;;
10939;SDS011;5522;42.696;23.494;2022-12-07T14:03:29;20.50;;;12.57;;
10939;SDS011;5522;42.696;23.494;2022-12-07T14:06:05;28.08;;;17.95;;
10939;SDS011;5522;42.696;23.494;2022-12-07T14:08:39;31.50;;;19.88;;
10939;SDS011;5522;42.696;23.494;2022-12-07T14:11:06;24.98;;;15.38;;
10939;SDS011;5522;42.696;23.494;2022-12-07T14:13:44;26.00;;;14.57;;
10939;SDS011;5522;42.696;23.494;2022-12-07T14:16:20;22.30;;;11.95;;
10939;SDS011;5522;42.696;23.494;2022-12-07T14:18:50;22.80;;;10.73;;
10939;SDS011;5522;42.696;23.494;2022-12-07T14:21:18;17.63;;;10.15;;
10939;SDS011;5522;42.696;23.494;2022-12-07T14:24:02;22.17;;;11.10;;
10939;SDS011;5522;42.696;23.494;2022-12-07T14:26:34;18.15;;;10.68;;
10939;SDS011;5522;42.696;23.494;2022-12-07T14:31:47;20.33;;;8.65;;
10939;SDS011;5522;42.696;23.494;2022-12-07T14:34:14;31.75;;;17.33;;
10939;SDS011;5522;42.696;23.494;2022-12-07T14:36:41;28.98;;;14.80;;
10939;SDS011;5522;42.696;23.494;2022-12-07T14:39:08;22.45;;;12.77;;
10939;SDS011;5522;42.696;23.494;2022-12-07T14:41:35;24.15;;;13.25;;
10939;SDS011;5522;42.696;23.494;2022-12-07T14:44:17;23.27;;;13.98;;
10939;SDS011;5522;42.696;23.494;2022-12-07T14:46:47;30.35;;;18.33;;
10939;SDS011;5522;42.696;23.494;2022-12-07T14:49:14;31.20;;;17.95;;
10939;SDS011;5522;42.696;23.494;2022-12-07T14:51:41;34.15;;;18.35;;
10939;SDS011;5522;42.696;23.494;2022-12-07T14:54:12;26.55;;;15.95;;
10939;SDS011;5522;42.696;23.494;2022-12-07T14:56:42;23.27;;;12.90;;
10939;SDS011;5522;42.696;23.494;2022-12-07T14:59:09;24.50;;;13.75;;
10939;SDS011;5522;42.696;23.494;2022-12-07T15:01:36;31.50;;;18.58;;
10939;SDS011;5522;42.696;23.494;2022-12-07T15:04:04;27.42;;;17.05;;
10939;SDS011;5522;42.696;23.494;2022-12-07T15:06:31;44.83;;;27.27;;
10939;SDS011;5522;42.696;23.494;2022-12-07T15:08:58;46.95;;;27.70;;
10939;SDS011;5522;42.696;23.494;2022-12-07T15:11:25;51.40;;;31.92;;
10939;SDS011;5522;42.696;23.494;2022-12-07T15:13:52;49.50;;;26.52;;